createdAt,value
2023-04-15T00:01:27.304Z,1.35
2023-04-15T00:06:22.397Z,1.95
2023-04-15T00:11:15.247Z,1.95
2023-04-15T00:16:08.698Z,1.63
2023-04-15T00:21:00.717Z,1.60
2023-04-15T00:25:52.617Z,1.27
2023-04-15T00:30:45.345Z,1.20
2023-04-15T00:35:37.702Z,1.40
2023-04-15T00:40:29.582Z,1.00
2023-04-15T00:45:21.880Z,1.48
2023-04-15T00:50:14.067Z,1.70
2023-04-15T00:55:06.864Z,2.30
2023-04-15T00:59:58.873Z,1.60
2023-04-15T01:04:50.838Z,1.85
2023-04-15T01:09:42.896Z,1.52
2023-04-15T01:14:34.830Z,2.20
2023-04-15T01:19:27.583Z,1.85
2023-04-15T01:24:19.569Z,2.50
2023-04-15T01:29:11.819Z,1.92
2023-04-15T01:34:03.700Z,1.73
2023-04-15T01:38:56.861Z,1.90
2023-04-15T01:43:48.710Z,1.70
2023-04-15T01:48:40.832Z,1.48
2023-04-15T01:53:32.814Z,2.05
2023-04-15T01:58:24.801Z,1.20
2023-04-15T02:03:17.213Z,2.15
2023-04-15T02:08:09.682Z,2.00
2023-04-15T02:13:03.164Z,1.40
2023-04-15T02:17:55.667Z,1.42
2023-04-15T02:22:48.617Z,1.50
2023-04-15T02:27:40.690Z,1.52
2023-04-15T02:32:32.616Z,1.38
2023-04-15T02:37:27.370Z,2.13
2023-04-15T02:42:21.843Z,1.00
2023-04-15T02:47:16.192Z,1.48
2023-04-15T02:52:08.240Z,2.17
2023-04-15T02:57:00.229Z,1.30
2023-04-15T03:01:52.165Z,1.42
2023-04-15T03:06:44.132Z,1.33
2023-04-15T03:11:40.847Z,1.40
2023-04-15T03:16:34.538Z,1.50
2023-04-15T03:21:26.909Z,1.50
2023-04-15T03:26:29.787Z,1.30
2023-04-15T03:31:25.698Z,1.30
2023-04-15T03:36:17.826Z,1.23
2023-04-15T03:41:09.861Z,1.40
2023-04-15T03:46:02.555Z,1.70
2023-04-15T03:50:54.530Z,1.40
2023-04-15T03:55:46.886Z,1.55
2023-04-15T04:00:39.970Z,2.10
2023-04-15T04:05:32.000Z,1.98
2023-04-15T04:10:23.956Z,1.88
2023-04-15T04:15:16.267Z,2.10
2023-04-15T04:20:08.658Z,2.13
2023-04-15T04:25:02.731Z,1.42
2023-04-15T04:29:54.573Z,1.98
2023-04-15T04:34:46.390Z,2.35
2023-04-15T04:39:38.234Z,1.73
2023-04-15T04:44:30.142Z,1.98
2023-04-15T04:49:21.988Z,1.80
2023-04-15T04:54:13.882Z,2.30
2023-04-15T04:59:07.224Z,2.03
2023-04-15T05:03:59.785Z,2.00
2023-04-15T05:08:51.882Z,1.73
2023-04-15T05:13:43.628Z,2.05
2023-04-15T05:18:35.531Z,1.85
2023-04-15T05:23:27.735Z,2.70
2023-04-15T05:28:19.616Z,1.60
2023-04-15T05:33:12.021Z,2.50
2023-04-15T05:38:03.970Z,2.08
2023-04-15T05:42:55.888Z,2.03
2023-04-15T05:47:47.854Z,2.85
2023-04-15T05:52:39.841Z,2.78
2023-04-15T05:57:32.175Z,2.70
2023-04-15T06:02:24.113Z,2.17
2023-04-15T06:07:15.936Z,2.92
2023-04-15T06:12:13.311Z,3.20
2023-04-15T06:17:05.273Z,2.55
2023-04-15T06:21:57.039Z,2.45
2023-04-15T06:26:48.949Z,2.10
2023-04-15T06:31:41.258Z,2.60
2023-04-15T06:36:33.475Z,2.35
2023-04-15T06:41:25.732Z,2.40
2023-04-15T06:46:17.844Z,2.15
2023-04-15T06:51:09.913Z,2.42
2023-04-15T06:56:01.743Z,2.47
2023-04-15T07:00:53.761Z,2.53
2023-04-15T07:05:45.997Z,2.38
2023-04-15T07:10:38.337Z,3.13
2023-04-15T07:15:30.261Z,2.78
2023-04-15T07:20:22.084Z,2.50
2023-04-15T07:25:13.966Z,2.40
2023-04-15T07:30:06.596Z,3.60
2023-04-15T07:34:58.629Z,3.00
2023-04-15T07:39:50.478Z,3.53
2023-04-15T07:44:42.395Z,3.88
2023-04-15T07:49:34.240Z,4.10
2023-04-15T07:54:26.147Z,3.75
2023-04-15T07:59:18.136Z,4.60
2023-04-15T08:04:10.887Z,4.03
2023-04-15T08:09:03.230Z,4.88
2023-04-15T08:13:55.231Z,4.32
2023-04-15T08:18:47.895Z,3.72
2023-04-15T08:23:44.017Z,4.35
2023-04-15T08:28:39.134Z,3.75
2023-04-15T08:33:31.365Z,3.88
2023-04-15T08:38:23.499Z,4.07
2023-04-15T08:43:28.614Z,4.25
2023-04-15T08:48:21.617Z,3.75
2023-04-15T08:53:13.775Z,3.58
2023-04-15T08:58:06.279Z,3.78
2023-04-15T09:02:59.648Z,4.50
2023-04-15T09:07:52.125Z,4.75
2023-04-15T09:12:44.497Z,3.88
2023-04-15T09:17:43.087Z,4.00
2023-04-15T09:22:34.973Z,4.07
2023-04-15T09:27:26.898Z,4.00
2023-04-15T09:32:18.780Z,5.00
2023-04-15T09:37:11.395Z,4.10
2023-04-15T09:42:09.286Z,4.10
2023-04-15T09:47:01.609Z,4.70
2023-04-15T09:52:04.978Z,3.50
2023-04-15T09:56:57.806Z,3.90
2023-04-15T10:01:49.744Z,3.30
2023-04-15T10:06:42.092Z,3.28
2023-04-15T10:11:34.440Z,3.33
2023-04-15T10:16:31.087Z,3.30
2023-04-15T10:21:23.844Z,3.03
2023-04-15T10:26:17.400Z,2.80
2023-04-15T10:31:11.816Z,3.65
2023-04-15T10:36:03.812Z,3.05
2023-04-15T10:41:13.338Z,3.17
2023-04-15T10:46:08.361Z,3.13
2023-04-15T10:51:04.009Z,3.38
2023-04-15T10:55:57.946Z,4.50
2023-04-15T11:00:53.950Z,3.28
2023-04-15T11:05:50.088Z,4.57
2023-04-15T11:10:41.883Z,4.13
2023-04-15T11:15:39.083Z,5.15
2023-04-15T11:20:32.494Z,4.50
2023-04-15T11:25:28.677Z,4.95
2023-04-15T11:30:23.153Z,4.10
2023-04-15T11:35:15.004Z,4.75
2023-04-15T11:40:08.182Z,5.25
2023-04-15T11:45:09.776Z,4.53
2023-04-15T11:50:23.821Z,4.95
2023-04-15T11:55:15.800Z,4.20
2023-04-15T12:00:09.933Z,4.10
2023-04-15T12:05:08.894Z,4.30
2023-04-15T12:10:00.935Z,4.55
2023-04-15T12:14:53.157Z,4.40
2023-04-15T12:19:49.013Z,4.85
2023-04-15T12:24:44.387Z,4.22
2023-04-15T12:29:38.851Z,4.47
2023-04-15T12:34:50.456Z,4.25
2023-04-15T12:39:44.716Z,4.75
2023-04-15T12:44:38.389Z,4.10
2023-04-15T12:49:32.968Z,4.45
2023-04-15T12:54:24.817Z,5.00
2023-04-15T12:59:18.850Z,4.43
2023-04-15T13:04:11.575Z,4.85
2023-04-15T13:09:05.670Z,3.90
2023-04-15T13:13:58.201Z,3.80
2023-04-15T13:18:50.104Z,4.13
2023-04-15T13:23:42.794Z,4.50
2023-04-15T13:28:35.030Z,3.90
2023-04-15T13:33:27.715Z,4.70
2023-04-15T13:38:19.972Z,6.65
2023-04-15T13:43:12.449Z,4.25
2023-04-15T13:48:04.445Z,4.10
2023-04-15T13:52:56.473Z,3.50
2023-04-15T13:57:48.493Z,5.25
2023-04-15T14:02:42.201Z,4.30
2023-04-15T14:07:34.481Z,4.43
2023-04-15T14:12:26.349Z,4.05
2023-04-15T14:17:18.436Z,3.55
2023-04-15T14:22:10.205Z,3.47
2023-04-15T14:27:02.420Z,2.70
2023-04-15T14:32:11.052Z,2.75
2023-04-15T14:37:03.700Z,4.03
2023-04-15T14:41:56.513Z,3.35
2023-04-15T14:46:48.451Z,3.28
2023-04-15T14:51:41.706Z,3.08
2023-04-15T14:56:33.672Z,2.58
2023-04-15T15:01:26.006Z,3.22
2023-04-15T15:06:17.993Z,3.50
2023-04-15T15:11:09.910Z,3.65
2023-04-15T15:16:02.553Z,2.90
2023-04-15T15:20:54.503Z,3.45
2023-04-15T15:25:47.584Z,2.60
2023-04-15T15:30:39.517Z,2.83
2023-04-15T15:35:32.561Z,2.20
2023-04-15T15:40:24.361Z,2.17
2023-04-15T15:45:16.516Z,3.60
2023-04-15T15:50:08.608Z,4.53
2023-04-15T15:55:01.005Z,5.03
2023-04-15T16:00:04.757Z,4.85
2023-04-15T16:05:02.189Z,4.32
2023-04-15T16:09:54.384Z,4.85
2023-04-15T16:14:47.412Z,4.45
2023-04-15T16:19:39.690Z,4.45
2023-04-15T16:24:34.853Z,4.65
2023-04-15T16:29:26.872Z,4.63
2023-04-15T16:34:20.066Z,4.28
2023-04-15T16:39:12.240Z,5.15
2023-04-15T16:44:04.341Z,3.67
2023-04-15T16:48:56.417Z,4.13
2023-04-15T16:53:49.321Z,3.88
2023-04-15T16:58:41.608Z,3.50
2023-04-15T17:03:34.012Z,3.05
2023-04-15T17:08:26.344Z,3.53
2023-04-15T17:13:18.877Z,3.58
2023-04-15T17:18:11.273Z,3.17
2023-04-15T17:23:04.179Z,4.43
2023-04-15T17:27:55.997Z,3.97
2023-04-15T17:32:47.922Z,3.58
2023-04-15T17:37:39.779Z,2.97
2023-04-15T17:42:31.589Z,2.90
2023-04-15T17:47:23.412Z,3.17
2023-04-15T17:52:15.690Z,2.40
2023-04-15T17:57:07.732Z,3.13
2023-04-15T18:01:59.837Z,2.78
2023-04-15T18:06:52.220Z,2.45
2023-04-15T18:11:45.336Z,2.80
2023-04-15T18:16:37.378Z,2.33
2023-04-15T18:21:29.334Z,2.53
2023-04-15T18:26:22.103Z,2.10
2023-04-15T18:31:13.983Z,3.40
2023-04-15T18:36:06.070Z,2.63
2023-04-15T18:40:59.009Z,2.33
2023-04-15T18:45:52.331Z,2.28
2023-04-15T18:50:44.346Z,2.42
2023-04-15T18:55:36.459Z,2.35
2023-04-15T19:00:28.351Z,2.28
2023-04-15T19:05:20.487Z,2.33
2023-04-15T19:10:12.371Z,2.83
2023-04-15T19:15:04.840Z,2.83
2023-04-15T19:19:56.799Z,2.35
2023-04-15T19:24:48.665Z,2.55
2023-04-15T19:29:40.894Z,2.63
2023-04-15T19:34:32.821Z,3.10
2023-04-15T19:39:24.685Z,3.10
2023-04-15T19:44:16.616Z,2.70
2023-04-15T19:49:08.503Z,2.80
2023-04-15T19:54:00.387Z,2.83
2023-04-15T19:58:55.613Z,2.80
2023-04-15T20:03:47.904Z,2.50
2023-04-15T20:08:39.965Z,2.33
2023-04-15T20:13:33.178Z,2.25
2023-04-15T20:18:24.989Z,1.63
2023-04-15T20:23:16.838Z,1.90
2023-04-15T20:28:08.750Z,2.67
2023-04-15T20:33:00.814Z,3.55
2023-04-15T20:37:53.375Z,3.10
2023-04-15T20:42:45.233Z,2.20
2023-04-15T20:47:37.079Z,2.50
2023-04-15T20:52:28.883Z,2.47
2023-04-15T20:57:20.884Z,2.45
2023-04-15T21:02:12.916Z,2.70
2023-04-15T21:07:04.875Z,3.00
2023-04-15T21:12:01.687Z,2.45
2023-04-15T21:16:54.132Z,2.85
2023-04-15T21:21:46.278Z,2.75
2023-04-15T21:26:38.209Z,2.38
2023-04-15T21:31:30.167Z,2.22
2023-04-15T21:36:22.074Z,2.45
2023-04-15T21:41:13.924Z,2.33
2023-04-15T21:46:24.014Z,2.95
2023-04-15T21:51:17.243Z,3.45
2023-04-15T21:56:09.099Z,2.65
2023-04-15T22:01:01.056Z,2.53
2023-04-15T22:05:52.932Z,2.92
2023-04-15T22:10:44.899Z,3.20
2023-04-15T22:15:37.832Z,2.90
2023-04-15T22:20:29.803Z,2.70
2023-04-15T22:25:21.922Z,2.63
2023-04-15T22:30:13.830Z,2.92
2023-04-15T22:35:06.908Z,3.40
2023-04-15T22:39:59.634Z,2.95
2023-04-15T22:44:51.817Z,2.70
2023-04-15T22:49:45.053Z,3.00
2023-04-15T22:54:37.130Z,2.95
2023-04-15T22:59:29.151Z,3.05
2023-04-15T23:04:22.967Z,3.30
2023-04-15T23:09:19.372Z,3.10
2023-04-15T23:14:11.175Z,3.08
2023-04-15T23:19:03.058Z,3.13
2023-04-15T23:23:54.844Z,2.90
2023-04-15T23:28:46.729Z,3.13
2023-04-15T23:33:38.819Z,2.70
2023-04-15T23:38:30.658Z,3.00
2023-04-15T23:43:22.533Z,3.08
2023-04-15T23:48:14.423Z,3.13
2023-04-15T23:53:06.296Z,3.80
2023-04-15T23:57:58.210Z,3.08
